sensor_id;sensor_type;location;lat;lon;timestamp;temperature;humidity
11855;DHT22;5987;53.140;8.904;2022-07-23T00:02:44;16.60;99.90
11855;DHT22;5987;53.140;8.904;2022-07-23T00:05:49;16.40;99.90
11855;DHT22;5987;53.140;8.904;2022-07-23T00:08:53;16.30;99.90
11855;DHT22;5987;53.140;8.904;2022-07-23T00:11:56;16.40;99.90
11855;DHT22;5987;53.140;8.904;2022-07-23T00:15:00;16.40;99.90
11855;DHT22;5987;53.140;8.904;2022-07-23T00:18:04;16.50;99.90
11855;DHT22;5987;53.140;8.904;2022-07-23T00:21:10;16.70;99.90
11855;DHT22;5987;53.140;8.904;2022-07-23T00:24:15;16.80;99.90
11855;DHT22;5987;53.140;8.904;2022-07-23T00:27:19;16.60;99.90
11855;DHT22;5987;53.140;8.904;2022-07-23T00:30:23;16.50;99.90
11855;DHT22;5987;53.140;8.904;2022-07-23T00:33:27;16.40;99.90
11855;DHT22;5987;53.140;8.904;2022-07-23T00:36:32;16.50;99.90
11855;DHT22;5987;53.140;8.904;2022-07-23T00:39:36;16.70;99.90
11855;DHT22;5987;53.140;8.904;2022-07-23T00:42:40;16.60;99.90
11855;DHT22;5987;53.140;8.904;2022-07-23T00:45:44;16.60;99.90
11855;DHT22;5987;53.140;8.904;2022-07-23T00:48:48;16.70;99.90
11855;DHT22;5987;53.140;8.904;2022-07-23T00:51:54;16.70;99.90
11855;DHT22;5987;53.140;8.904;2022-07-23T00:54:58;16.50;99.90
11855;DHT22;5987;53.140;8.904;2022-07-23T00:58:03;16.30;99.90
11855;DHT22;5987;53.140;8.904;2022-07-23T01:01:07;16.40;99.90
11855;DHT22;5987;53.140;8.904;2022-07-23T01:04:11;16.30;99.90
11855;DHT22;5987;53.140;8.904;2022-07-23T01:07:18;16.20;99.90
11855;DHT22;5987;53.140;8.904;2022-07-23T01:10:24;16.10;99.90
11855;DHT22;5987;53.140;8.904;2022-07-23T01:13:34;16.10;99.90
11855;DHT22;5987;53.140;8.904;2022-07-23T01:16:37;16.10;99.90
11855;DHT22;5987;53.140;8.904;2022-07-23T01:19:41;16.00;99.90
11855;DHT22;5987;53.140;8.904;2022-07-23T01:22:47;15.90;99.90
11855;DHT22;5987;53.140;8.904;2022-07-23T01:25:52;16.00;99.90
11855;DHT22;5987;53.140;8.904;2022-07-23T01:28:57;15.90;99.90
11855;DHT22;5987;53.140;8.904;2022-07-23T01:32:01;15.80;99.90
11855;DHT22;5987;53.140;8.904;2022-07-23T01:35:06;15.80;99.90
11855;DHT22;5987;53.140;8.904;2022-07-23T01:38:12;15.80;99.90
11855;DHT22;5987;53.140;8.904;2022-07-23T01:41:15;15.80;99.90
11855;DHT22;5987;53.140;8.904;2022-07-23T01:44:19;15.80;99.90
11855;DHT22;5987;53.140;8.904;2022-07-23T01:47:23;15.70;99.90
11855;DHT22;5987;53.140;8.904;2022-07-23T01:50:27;15.70;99.90
11855;DHT22;5987;53.140;8.904;2022-07-23T01:53:32;15.60;99.90
11855;DHT22;5987;53.140;8.904;2022-07-23T01:56:36;15.60;99.90
11855;DHT22;5987;53.140;8.904;2022-07-23T01:59:39;15.60;99.90
11855;DHT22;5987;53.140;8.904;2022-07-23T02:02:43;15.70;99.90
11855;DHT22;5987;53.140;8.904;2022-07-23T02:05:46;15.60;99.90
11855;DHT22;5987;53.140;8.904;2022-07-23T02:08:52;15.70;99.90
11855;DHT22;5987;53.140;8.904;2022-07-23T02:11:55;15.90;99.90
11855;DHT22;5987;53.140;8.904;2022-07-23T02:14:59;15.80;99.90
11855;DHT22;5987;53.140;8.904;2022-07-23T02:18:03;15.70;99.90
11855;DHT22;5987;53.140;8.904;2022-07-23T02:21:07;15.60;99.90
11855;DHT22;5987;53.140;8.904;2022-07-23T02:24:12;15.60;99.90
11855;DHT22;5987;53.140;8.904;2022-07-23T02:27:16;15.60;99.90
11855;DHT22;5987;53.140;8.904;2022-07-23T02:30:20;15.60;99.90
11855;DHT22;5987;53.140;8.904;2022-07-23T02:33:23;15.80;99.90
11855;DHT22;5987;53.140;8.904;2022-07-23T02:36:27;15.80;99.90
11855;DHT22;5987;53.140;8.904;2022-07-23T02:39:33;15.80;99.90
11855;DHT22;5987;53.140;8.904;2022-07-23T02:42:36;15.70;99.90
11855;DHT22;5987;53.140;8.904;2022-07-23T02:45:40;15.70;99.90
11855;DHT22;5987;53.140;8.904;2022-07-23T02:48:44;15.70;99.90
11855;DHT22;5987;53.140;8.904;2022-07-23T02:51:48;15.60;99.90
11855;DHT22;5987;53.140;8.904;2022-07-23T02:54:53;15.80;99.90
11855;DHT22;5987;53.140;8.904;2022-07-23T02:57:56;15.70;99.90
11855;DHT22;5987;53.140;8.904;2022-07-23T03:01:00;15.70;99.90
11855;DHT22;5987;53.140;8.904;2022-07-23T03:04:04;15.70;99.90
11855;DHT22;5987;53.140;8.904;2022-07-23T03:07:08;15.80;99.90
11855;DHT22;5987;53.140;8.904;2022-07-23T03:10:13;15.90;99.90
11855;DHT22;5987;53.140;8.904;2022-07-23T03:13:17;15.90;99.90
11855;DHT22;5987;53.140;8.904;2022-07-23T03:16:20;15.90;99.90
11855;DHT22;5987;53.140;8.904;2022-07-23T03:19:24;15.80;99.90
11855;DHT22;5987;53.140;8.904;2022-07-23T03:22:28;15.90;99.90
11855;DHT22;5987;53.140;8.904;2022-07-23T03:25:33;15.90;99.90
11855;DHT22;5987;53.140;8.904;2022-07-23T03:28:37;15.90;99.90
11855;DHT22;5987;53.140;8.904;2022-07-23T03:31:41;16.00;99.90
11855;DHT22;5987;53.140;8.904;2022-07-23T03:34:45;16.00;99.90
11855;DHT22;5987;53.140;8.904;2022-07-23T03:37:48;16.00;99.90
11855;DHT22;5987;53.140;8.904;2022-07-23T03:40:54;15.90;99.90
11855;DHT22;5987;53.140;8.904;2022-07-23T03:43:57;15.90;99.90
11855;DHT22;5987;53.140;8.904;2022-07-23T03:47:01;15.70;99.90
11855;DHT22;5987;53.140;8.904;2022-07-23T03:50:07;15.80;99.90
11855;DHT22;5987;53.140;8.904;2022-07-23T03:53:11;15.80;99.90
11855;DHT22;5987;53.140;8.904;2022-07-23T03:56:16;15.90;99.90
11855;DHT22;5987;53.140;8.904;2022-07-23T03:59:20;15.80;99.90
11855;DHT22;5987;53.140;8.904;2022-07-23T04:02:25;15.70;99.90
11855;DHT22;5987;53.140;8.904;2022-07-23T04:05:29;15.60;99.90
11855;DHT22;5987;53.140;8.904;2022-07-23T04:08:33;15.60;99.90
11855;DHT22;5987;53.140;8.904;2022-07-23T04:11:38;15.40;99.90
11855;DHT22;5987;53.140;8.904;2022-07-23T04:14:42;15.50;99.90
11855;DHT22;5987;53.140;8.904;2022-07-23T04:17:45;15.40;99.90
11855;DHT22;5987;53.140;8.904;2022-07-23T04:20:51;15.40;99.90
11855;DHT22;5987;53.140;8.904;2022-07-23T04:23:55;15.40;99.90
11855;DHT22;5987;53.140;8.904;2022-07-23T04:27:00;15.40;99.90
11855;DHT22;5987;53.140;8.904;2022-07-23T04:30:06;15.40;99.90
11855;DHT22;5987;53.140;8.904;2022-07-23T04:33:10;15.40;99.90
11855;DHT22;5987;53.140;8.904;2022-07-23T04:36:14;15.50;99.90
11855;DHT22;5987;53.140;8.904;2022-07-23T04:39:18;15.50;99.90
11855;DHT22;5987;53.140;8.904;2022-07-23T04:42:23;15.50;99.90
11855;DHT22;5987;53.140;8.904;2022-07-23T04:45:27;15.40;99.90
11855;DHT22;5987;53.140;8.904;2022-07-23T04:48:32;15.40;99.90
11855;DHT22;5987;53.140;8.904;2022-07-23T04:51:37;15.40;99.90
11855;DHT22;5987;53.140;8.904;2022-07-23T04:54:41;15.40;99.90
11855;DHT22;5987;53.140;8.904;2022-07-23T04:57:46;15.40;99.90
11855;DHT22;5987;53.140;8.904;2022-07-23T05:00:49;15.40;99.90
11855;DHT22;5987;53.140;8.904;2022-07-23T05:03:53;15.50;99.90
11855;DHT22;5987;53.140;8.904;2022-07-23T05:06:57;15.60;99.90
11855;DHT22;5987;53.140;8.904;2022-07-23T05:10:01;15.70;99.90
11855;DHT22;5987;53.140;8.904;2022-07-23T05:13:06;15.80;99.90
11855;DHT22;5987;53.140;8.904;2022-07-23T05:16:10;16.00;99.90
11855;DHT22;5987;53.140;8.904;2022-07-23T05:19:14;16.10;99.90
11855;DHT22;5987;53.140;8.904;2022-07-23T05:22:18;16.20;99.90
11855;DHT22;5987;53.140;8.904;2022-07-23T05:25:21;16.20;99.90
11855;DHT22;5987;53.140;8.904;2022-07-23T05:28:27;16.30;99.90
11855;DHT22;5987;53.140;8.904;2022-07-23T05:31:31;16.40;99.90
11855;DHT22;5987;53.140;8.904;2022-07-23T05:34:34;16.50;99.90
11855;DHT22;5987;53.140;8.904;2022-07-23T05:37:38;16.60;99.90
11855;DHT22;5987;53.140;8.904;2022-07-23T05:40:42;16.80;99.90
11855;DHT22;5987;53.140;8.904;2022-07-23T05:43:47;16.90;99.90
11855;DHT22;5987;53.140;8.904;2022-07-23T05:46:50;17.10;99.90
11855;DHT22;5987;53.140;8.904;2022-07-23T05:49:55;17.80;99.90
11855;DHT22;5987;53.140;8.904;2022-07-23T05:53:04;18.20;99.90
11855;DHT22;5987;53.140;8.904;2022-07-23T05:56:08;18.20;99.90
11855;DHT22;5987;53.140;8.904;2022-07-23T05:59:13;18.20;99.90
11855;DHT22;5987;53.140;8.904;2022-07-23T06:02:18;18.20;99.90
11855;DHT22;5987;53.140;8.904;2022-07-23T06:05:22;18.10;99.90
11855;DHT22;5987;53.140;8.904;2022-07-23T06:08:26;18.10;99.90
11855;DHT22;5987;53.140;8.904;2022-07-23T06:11:30;18.00;99.90
11855;DHT22;5987;53.140;8.904;2022-07-23T06:14:36;18.00;99.90
11855;DHT22;5987;53.140;8.904;2022-07-23T06:17:40;17.90;99.90
11855;DHT22;5987;53.140;8.904;2022-07-23T06:20:44;17.70;99.90
11855;DHT22;5987;53.140;8.904;2022-07-23T06:23:51;17.80;99.90
11855;DHT22;5987;53.140;8.904;2022-07-23T06:26:55;17.80;99.90
11855;DHT22;5987;53.140;8.904;2022-07-23T06:30:00;17.90;99.90
11855;DHT22;5987;53.140;8.904;2022-07-23T06:33:04;17.80;99.90
11855;DHT22;5987;53.140;8.904;2022-07-23T06:36:08;17.80;99.90
11855;DHT22;5987;53.140;8.904;2022-07-23T06:39:12;17.80;99.90
11855;DHT22;5987;53.140;8.904;2022-07-23T06:42:16;18.00;99.90
11855;DHT22;5987;53.140;8.904;2022-07-23T06:45:21;18.20;99.90
11855;DHT22;5987;53.140;8.904;2022-07-23T06:48:25;18.20;99.90
11855;DHT22;5987;53.140;8.904;2022-07-23T06:51:31;18.20;99.90
11855;DHT22;5987;53.140;8.904;2022-07-23T06:54:35;18.30;99.90
11855;DHT22;5987;53.140;8.904;2022-07-23T06:57:39;18.90;99.90
11855;DHT22;5987;53.140;8.904;2022-07-23T07:00:44;19.20;99.90
11855;DHT22;5987;53.140;8.904;2022-07-23T07:03:47;19.60;99.90
11855;DHT22;5987;53.140;8.904;2022-07-23T07:06:51;20.00;99.90
11855;DHT22;5987;53.140;8.904;2022-07-23T07:09:55;20.40;99.90
11855;DHT22;5987;53.140;8.904;2022-07-23T07:12:59;20.50;99.90
11855;DHT22;5987;53.140;8.904;2022-07-23T07:16:04;19.90;99.90
11855;DHT22;5987;53.140;8.904;2022-07-23T07:19:09;19.30;99.90
11855;DHT22;5987;53.140;8.904;2022-07-23T07:22:12;18.90;99.90
11855;DHT22;5987;53.140;8.904;2022-07-23T07:25:16;19.30;99.90
11855;DHT22;5987;53.140;8.904;2022-07-23T07:28:20;19.30;99.90
11855;DHT22;5987;53.140;8.904;2022-07-23T07:31:25;19.50;99.90
11855;DHT22;5987;53.140;8.904;2022-07-23T07:34:29;20.20;99.90
11855;DHT22;5987;53.140;8.904;2022-07-23T07:37:32;20.50;99.90
11855;DHT22;5987;53.140;8.904;2022-07-23T07:40:36;20.70;99.90
11855;DHT22;5987;53.140;8.904;2022-07-23T07:43:40;20.60;99.90
11855;DHT22;5987;53.140;8.904;2022-07-23T07:46:45;20.40;99.90
11855;DHT22;5987;53.140;8.904;2022-07-23T07:49:49;20.30;99.90
11855;DHT22;5987;53.140;8.904;2022-07-23T07:52:53;20.10;99.90
11855;DHT22;5987;53.140;8.904;2022-07-23T07:55:57;19.90;99.90
11855;DHT22;5987;53.140;8.904;2022-07-23T07:59:01;19.60;99.90
11855;DHT22;5987;53.140;8.904;2022-07-23T08:02:06;19.40;99.90
11855;DHT22;5987;53.140;8.904;2022-07-23T08:05:10;19.20;99.90
11855;DHT22;5987;53.140;8.904;2022-07-23T08:08:14;19.10;99.90
11855;DHT22;5987;53.140;8.904;2022-07-23T08:11:18;19.00;99.90
11855;DHT22;5987;53.140;8.904;2022-07-23T08:14:22;19.10;99.90
11855;DHT22;5987;53.140;8.904;2022-07-23T08:17:27;19.10;99.90
11855;DHT22;5987;53.140;8.904;2022-07-23T08:20:31;19.10;99.90
11855;DHT22;5987;53.140;8.904;2022-07-23T08:23:35;19.30;99.90
11855;DHT22;5987;53.140;8.904;2022-07-23T08:26:39;19.10;99.90
11855;DHT22;5987;53.140;8.904;2022-07-23T08:29:42;19.20;99.90
11855;DHT22;5987;53.140;8.904;2022-07-23T08:32:53;19.30;99.90
11855;DHT22;5987;53.140;8.904;2022-07-23T08:35:59;19.30;99.90
11855;DHT22;5987;53.140;8.904;2022-07-23T08:39:05;19.50;99.90
11855;DHT22;5987;53.140;8.904;2022-07-23T08:42:08;19.60;99.90
11855;DHT22;5987;53.140;8.904;2022-07-23T08:45:13;19.50;99.90
11855;DHT22;5987;53.140;8.904;2022-07-23T08:48:23;19.60;99.90
11855;DHT22;5987;53.140;8.904;2022-07-23T08:51:28;19.80;99.90
11855;DHT22;5987;53.140;8.904;2022-07-23T08:54:34;19.80;99.90
11855;DHT22;5987;53.140;8.904;2022-07-23T08:57:38;19.80;99.90
11855;DHT22;5987;53.140;8.904;2022-07-23T09:00:42;20.00;99.90
11855;DHT22;5987;53.140;8.904;2022-07-23T09:03:48;20.10;99.90
11855;DHT22;5987;53.140;8.904;2022-07-23T09:06:53;20.20;99.90
11855;DHT22;5987;53.140;8.904;2022-07-23T09:10:06;20.30;99.90
11855;DHT22;5987;53.140;8.904;2022-07-23T09:13:29;20.50;99.90
11855;DHT22;5987;53.140;8.904;2022-07-23T09:16:35;20.60;99.90
11855;DHT22;5987;53.140;8.904;2022-07-23T09:19:41;20.50;99.90
11855;DHT22;5987;53.140;8.904;2022-07-23T09:22:46;20.70;99.90
11855;DHT22;5987;53.140;8.904;2022-07-23T09:25:51;20.80;99.90
11855;DHT22;5987;53.140;8.904;2022-07-23T09:28:56;20.80;99.90
11855;DHT22;5987;53.140;8.904;2022-07-23T09:32:03;21.00;99.90
11855;DHT22;5987;53.140;8.904;2022-07-23T09:35:11;21.20;99.90
11855;DHT22;5987;53.140;8.904;2022-07-23T09:38:16;21.40;99.90
11855;DHT22;5987;53.140;8.904;2022-07-23T09:41:20;21.50;99.90
11855;DHT22;5987;53.140;8.904;2022-07-23T09:44:25;21.40;99.90
11855;DHT22;5987;53.140;8.904;2022-07-23T09:47:32;21.20;99.90
11855;DHT22;5987;53.140;8.904;2022-07-23T09:50:37;21.40;99.90
11855;DHT22;5987;53.140;8.904;2022-07-23T09:53:41;21.60;99.90
11855;DHT22;5987;53.140;8.904;2022-07-23T09:56:44;21.80;99.90
11855;DHT22;5987;53.140;8.904;2022-07-23T09:59:50;21.80;99.90
11855;DHT22;5987;53.140;8.904;2022-07-23T10:02:55;21.30;99.50
11855;DHT22;5987;53.140;8.904;2022-07-23T10:06:01;21.20;99.90
11855;DHT22;5987;53.140;8.904;2022-07-23T10:09:07;21.40;99.90
11855;DHT22;5987;53.140;8.904;2022-07-23T10:12:15;21.70;99.90
11855;DHT22;5987;53.140;8.904;2022-07-23T10:15:25;21.70;97.90
11855;DHT22;5987;53.140;8.904;2022-07-23T10:18:30;21.80;98.80
11855;DHT22;5987;53.140;8.904;2022-07-23T10:21:40;22.10;97.90
11855;DHT22;5987;53.140;8.904;2022-07-23T10:24:54;22.00;97.00
11855;DHT22;5987;53.140;8.904;2022-07-23T10:28:29;21.80;95.80
11855;DHT22;5987;53.140;8.904;2022-07-23T10:31:58;21.10;97.50
11855;DHT22;5987;53.140;8.904;2022-07-23T10:35:10;20.70;99.70
11855;DHT22;5987;53.140;8.904;2022-07-23T10:38:25;20.60;99.90
11855;DHT22;5987;53.140;8.904;2022-07-23T10:41:35;20.60;99.90
11855;DHT22;5987;53.140;8.904;2022-07-23T10:44:42;20.40;99.90
11855;DHT22;5987;53.140;8.904;2022-07-23T10:47:48;20.30;99.90
11855;DHT22;5987;53.140;8.904;2022-07-23T10:51:07;20.40;99.90
11855;DHT22;5987;53.140;8.904;2022-07-23T10:54:22;20.50;99.90
11855;DHT22;5987;53.140;8.904;2022-07-23T10:57:47;20.70;99.90
11855;DHT22;5987;53.140;8.904;2022-07-23T11:00:52;21.00;99.90
11855;DHT22;5987;53.140;8.904;2022-07-23T11:03:57;21.30;99.90
11855;DHT22;5987;53.140;8.904;2022-07-23T11:07:08;21.60;99.90
11855;DHT22;5987;53.140;8.904;2022-07-23T11:10:34;21.80;99.90
11855;DHT22;5987;53.140;8.904;2022-07-23T11:13:46;21.80;99.30
11855;DHT22;5987;53.140;8.904;2022-07-23T11:16:55;22.20;99.90
11855;DHT22;5987;53.140;8.904;2022-07-23T11:20:17;22.50;96.50
11855;DHT22;5987;53.140;8.904;2022-07-23T11:23:22;22.40;95.60
11855;DHT22;5987;53.140;8.904;2022-07-23T11:26:52;22.30;95.90
11855;DHT22;5987;53.140;8.904;2022-07-23T11:29:58;21.90;96.40
11855;DHT22;5987;53.140;8.904;2022-07-23T11:33:19;21.80;98.10
11855;DHT22;5987;53.140;8.904;2022-07-23T11:36:24;21.50;97.90
11855;DHT22;5987;53.140;8.904;2022-07-23T11:39:29;21.30;97.90
11855;DHT22;5987;53.140;8.904;2022-07-23T11:42:36;21.00;99.30
11855;DHT22;5987;53.140;8.904;2022-07-23T11:45:42;20.80;99.70
11855;DHT22;5987;53.140;8.904;2022-07-23T11:49:01;21.00;99.90
11855;DHT22;5987;53.140;8.904;2022-07-23T11:52:07;21.50;99.90
11855;DHT22;5987;53.140;8.904;2022-07-23T11:55:13;21.90;97.90
11855;DHT22;5987;53.140;8.904;2022-07-23T11:58:20;21.60;97.30
11855;DHT22;5987;53.140;8.904;2022-07-23T12:01:24;21.40;99.00
11855;DHT22;5987;53.140;8.904;2022-07-23T12:04:37;21.40;99.10
11855;DHT22;5987;53.140;8.904;2022-07-23T12:07:43;21.40;99.60
11855;DHT22;5987;53.140;8.904;2022-07-23T12:10:51;21.50;99.40
11855;DHT22;5987;53.140;8.904;2022-07-23T12:13:59;21.50;99.70
11855;DHT22;5987;53.140;8.904;2022-07-23T12:17:07;21.70;99.60
11855;DHT22;5987;53.140;8.904;2022-07-23T12:20:15;21.60;98.70
11855;DHT22;5987;53.140;8.904;2022-07-23T12:23:21;21.60;99.80
11855;DHT22;5987;53.140;8.904;2022-07-23T12:26:26;21.90;99.90
11855;DHT22;5987;53.140;8.904;2022-07-23T12:29:35;21.80;98.20
11855;DHT22;5987;53.140;8.904;2022-07-23T12:32:43;21.60;98.90
11855;DHT22;5987;53.140;8.904;2022-07-23T12:35:48;21.80;99.30
11855;DHT22;5987;53.140;8.904;2022-07-23T12:38:53;21.90;96.40
11855;DHT22;5987;53.140;8.904;2022-07-23T12:41:56;21.70;97.30
11855;DHT22;5987;53.140;8.904;2022-07-23T12:45:10;21.70;97.40
11855;DHT22;5987;53.140;8.904;2022-07-23T12:48:20;21.50;96.10
11855;DHT22;5987;53.140;8.904;2022-07-23T12:51:30;21.30;96.90
11855;DHT22;5987;53.140;8.904;2022-07-23T12:54:35;21.10;97.60
11855;DHT22;5987;53.140;8.904;2022-07-23T12:57:48;21.20;98.40
11855;DHT22;5987;53.140;8.904;2022-07-23T13:00:56;21.20;98.10
11855;DHT22;5987;53.140;8.904;2022-07-23T13:04:26;21.60;97.60
11855;DHT22;5987;53.140;8.904;2022-07-23T13:07:30;21.60;96.30
11855;DHT22;5987;53.140;8.904;2022-07-23T13:10:34;21.60;97.00
11855;DHT22;5987;53.140;8.904;2022-07-23T13:13:37;21.70;96.00
11855;DHT22;5987;53.140;8.904;2022-07-23T13:16:43;21.90;96.10
11855;DHT22;5987;53.140;8.904;2022-07-23T13:19:49;22.10;95.10
11855;DHT22;5987;53.140;8.904;2022-07-23T13:22:53;21.70;94.10
11855;DHT22;5987;53.140;8.904;2022-07-23T13:25:57;21.40;94.70
11855;DHT22;5987;53.140;8.904;2022-07-23T13:29:03;21.10;94.90
11855;DHT22;5987;53.140;8.904;2022-07-23T13:32:12;21.40;96.10
11855;DHT22;5987;53.140;8.904;2022-07-23T13:35:16;22.10;95.00
11855;DHT22;5987;53.140;8.904;2022-07-23T13:38:21;22.40;92.50
11855;DHT22;5987;53.140;8.904;2022-07-23T13:41:26;22.90;91.50
11855;DHT22;5987;53.140;8.904;2022-07-23T13:44:31;22.80;90.30
11855;DHT22;5987;53.140;8.904;2022-07-23T13:47:36;22.80;91.30
11855;DHT22;5987;53.140;8.904;2022-07-23T13:50:41;22.60;92.20
11855;DHT22;5987;53.140;8.904;2022-07-23T13:53:46;22.40;91.80
11855;DHT22;5987;53.140;8.904;2022-07-23T13:56:51;22.40;92.80
11855;DHT22;5987;53.140;8.904;2022-07-23T13:59:55;22.00;92.50
11855;DHT22;5987;53.140;8.904;2022-07-23T14:03:00;22.30;93.30
11855;DHT22;5987;53.140;8.904;2022-07-23T14:06:05;22.40;92.10
11855;DHT22;5987;53.140;8.904;2022-07-23T14:09:17;22.20;91.90
11855;DHT22;5987;53.140;8.904;2022-07-23T14:12:21;21.90;92.00
11855;DHT22;5987;53.140;8.904;2022-07-23T14:15:26;21.60;93.60
11855;DHT22;5987;53.140;8.904;2022-07-23T14:18:32;21.60;93.20
11855;DHT22;5987;53.140;8.904;2022-07-23T14:21:37;21.50;93.80
11855;DHT22;5987;53.140;8.904;2022-07-23T14:24:40;21.70;94.80
11855;DHT22;5987;53.140;8.904;2022-07-23T14:27:45;22.00;94.60
11855;DHT22;5987;53.140;8.904;2022-07-23T14:30:49;22.30;94.60
11855;DHT22;5987;53.140;8.904;2022-07-23T14:33:54;22.30;93.60
11855;DHT22;5987;53.140;8.904;2022-07-23T14:36:58;22.20;92.80
11855;DHT22;5987;53.140;8.904;2022-07-23T14:40:03;22.00;92.40
11855;DHT22;5987;53.140;8.904;2022-07-23T14:43:09;21.80;93.40
11855;DHT22;5987;53.140;8.904;2022-07-23T14:46:14;21.90;94.50
11855;DHT22;5987;53.140;8.904;2022-07-23T14:49:21;21.90;94.50
11855;DHT22;5987;53.140;8.904;2022-07-23T14:52:28;22.10;95.00
11855;DHT22;5987;53.140;8.904;2022-07-23T14:55:32;22.10;94.10
11855;DHT22;5987;53.140;8.904;2022-07-23T14:58:36;22.20;94.10
11855;DHT22;5987;53.140;8.904;2022-07-23T15:01:40;22.30;94.50
11855;DHT22;5987;53.140;8.904;2022-07-23T15:04:45;22.30;93.80
11855;DHT22;5987;53.140;8.904;2022-07-23T15:07:49;22.20;93.30
11855;DHT22;5987;53.140;8.904;2022-07-23T15:10:54;22.20;93.40
11855;DHT22;5987;53.140;8.904;2022-07-23T15:13:58;22.40;94.10
11855;DHT22;5987;53.140;8.904;2022-07-23T15:17:01;22.60;93.20
11855;DHT22;5987;53.140;8.904;2022-07-23T15:20:08;22.40;93.60
11855;DHT22;5987;53.140;8.904;2022-07-23T15:23:12;22.20;94.50
11855;DHT22;5987;53.140;8.904;2022-07-23T15:26:17;22.10;94.50
11855;DHT22;5987;53.140;8.904;2022-07-23T15:29:21;22.50;94.20
11855;DHT22;5987;53.140;8.904;2022-07-23T15:32:25;22.70;93.00
11855;DHT22;5987;53.140;8.904;2022-07-23T15:35:30;22.70;92.60
11855;DHT22;5987;53.140;8.904;2022-07-23T15:38:35;22.50;91.50
11855;DHT22;5987;53.140;8.904;2022-07-23T15:41:39;22.60;91.60
11855;DHT22;5987;53.140;8.904;2022-07-23T15:44:44;22.10;90.80
11855;DHT22;5987;53.140;8.904;2022-07-23T15:47:49;21.80;91.60
11855;DHT22;5987;53.140;8.904;2022-07-23T15:50:54;21.70;93.00
11855;DHT22;5987;53.140;8.904;2022-07-23T15:54:01;21.60;93.70
11855;DHT22;5987;53.140;8.904;2022-07-23T15:57:05;21.80;93.80
11855;DHT22;5987;53.140;8.904;2022-07-23T16:00:10;21.80;94.10
11855;DHT22;5987;53.140;8.904;2022-07-23T16:03:15;21.70;94.00
11855;DHT22;5987;53.140;8.904;2022-07-23T16:06:20;21.70;93.90
11855;DHT22;5987;53.140;8.904;2022-07-23T16:09:24;21.70;94.50
11855;DHT22;5987;53.140;8.904;2022-07-23T16:12:28;21.50;94.50
11855;DHT22;5987;53.140;8.904;2022-07-23T16:15:32;21.50;95.30
11855;DHT22;5987;53.140;8.904;2022-07-23T16:18:36;21.50;95.50
11855;DHT22;5987;53.140;8.904;2022-07-23T16:21:42;21.60;94.10
11855;DHT22;5987;53.140;8.904;2022-07-23T16:24:46;21.70;94.50
11855;DHT22;5987;53.140;8.904;2022-07-23T16:27:50;21.90;94.90
11855;DHT22;5987;53.140;8.904;2022-07-23T16:30:53;22.10;93.70
11855;DHT22;5987;53.140;8.904;2022-07-23T16:33:57;22.00;93.50
11855;DHT22;5987;53.140;8.904;2022-07-23T16:37:02;22.00;93.60
11855;DHT22;5987;53.140;8.904;2022-07-23T16:40:08;22.00;94.50
11855;DHT22;5987;53.140;8.904;2022-07-23T16:43:13;21.90;94.40
11855;DHT22;5987;53.140;8.904;2022-07-23T16:46:17;21.70;93.10
11855;DHT22;5987;53.140;8.904;2022-07-23T16:49:21;21.40;93.40
11855;DHT22;5987;53.140;8.904;2022-07-23T16:52:26;21.30;93.60
11855;DHT22;5987;53.140;8.904;2022-07-23T16:55:30;21.40;93.50
11855;DHT22;5987;53.140;8.904;2022-07-23T16:58:35;21.40;94.20
11855;DHT22;5987;53.140;8.904;2022-07-23T17:01:39;21.50;94.20
11855;DHT22;5987;53.140;8.904;2022-07-23T17:04:43;21.40;94.40
11855;DHT22;5987;53.140;8.904;2022-07-23T17:07:49;21.50;94.60
11855;DHT22;5987;53.140;8.904;2022-07-23T17:10:55;21.50;94.20
11855;DHT22;5987;53.140;8.904;2022-07-23T17:13:59;21.50;94.20
11855;DHT22;5987;53.140;8.904;2022-07-23T17:17:03;21.20;94.80
11855;DHT22;5987;53.140;8.904;2022-07-23T17:20:09;21.20;95.30
11855;DHT22;5987;53.140;8.904;2022-07-23T17:23:15;21.10;96.80
11855;DHT22;5987;53.140;8.904;2022-07-23T17:26:19;21.10;95.60
11855;DHT22;5987;53.140;8.904;2022-07-23T17:29:22;21.10;96.00
11855;DHT22;5987;53.140;8.904;2022-07-23T17:32:26;21.10;95.70
11855;DHT22;5987;53.140;8.904;2022-07-23T17:35:30;21.00;95.80
11855;DHT22;5987;53.140;8.904;2022-07-23T17:38:35;20.90;96.10
11855;DHT22;5987;53.140;8.904;2022-07-23T17:41:39;20.80;97.00
11855;DHT22;5987;53.140;8.904;2022-07-23T17:44:48;20.80;97.90
11855;DHT22;5987;53.140;8.904;2022-07-23T17:47:52;20.80;98.30
11855;DHT22;5987;53.140;8.904;2022-07-23T17:50:56;20.80;98.40
11855;DHT22;5987;53.140;8.904;2022-07-23T17:54:03;20.80;98.70
11855;DHT22;5987;53.140;8.904;2022-07-23T17:57:07;20.70;98.90
11855;DHT22;5987;53.140;8.904;2022-07-23T18:00:13;20.60;99.30
11855;DHT22;5987;53.140;8.904;2022-07-23T18:03:19;20.60;99.60
11855;DHT22;5987;53.140;8.904;2022-07-23T18:06:23;20.50;99.70
11855;DHT22;5987;53.140;8.904;2022-07-23T18:09:29;20.30;99.90
11855;DHT22;5987;53.140;8.904;2022-07-23T18:12:32;20.20;99.90
11855;DHT22;5987;53.140;8.904;2022-07-23T18:15:39;20.20;99.90
11855;DHT22;5987;53.140;8.904;2022-07-23T18:18:42;20.10;99.90
11855;DHT22;5987;53.140;8.904;2022-07-23T18:21:46;20.10;99.90
11855;DHT22;5987;53.140;8.904;2022-07-23T18:24:52;20.00;99.90
11855;DHT22;5987;53.140;8.904;2022-07-23T18:27:55;20.00;99.90
11855;DHT22;5987;53.140;8.904;2022-07-23T18:30:59;20.00;99.90
11855;DHT22;5987;53.140;8.904;2022-07-23T18:34:03;20.00;99.90
11855;DHT22;5987;53.140;8.904;2022-07-23T18:37:07;19.90;99.90
11855;DHT22;5987;53.140;8.904;2022-07-23T18:40:32;19.80;99.90
11855;DHT22;5987;53.140;8.904;2022-07-23T18:43:37;19.80;99.90
11855;DHT22;5987;53.140;8.904;2022-07-23T18:46:40;19.70;99.90
11855;DHT22;5987;53.140;8.904;2022-07-23T18:49:44;19.50;99.90
11855;DHT22;5987;53.140;8.904;2022-07-23T18:52:48;19.50;99.90
11855;DHT22;5987;53.140;8.904;2022-07-23T18:55:53;19.30;99.90
11855;DHT22;5987;53.140;8.904;2022-07-23T18:58:57;19.30;99.90
11855;DHT22;5987;53.140;8.904;2022-07-23T19:02:02;19.30;99.90
11855;DHT22;5987;53.140;8.904;2022-07-23T19:05:07;19.30;99.90
11855;DHT22;5987;53.140;8.904;2022-07-23T19:08:11;19.30;99.90
11855;DHT22;5987;53.140;8.904;2022-07-23T19:11:17;19.10;99.90
11855;DHT22;5987;53.140;8.904;2022-07-23T19:14:21;19.10;99.90
11855;DHT22;5987;53.140;8.904;2022-07-23T19:17:25;18.90;99.90
11855;DHT22;5987;53.140;8.904;2022-07-23T19:20:29;18.80;99.90
11855;DHT22;5987;53.140;8.904;2022-07-23T19:23:33;18.70;99.90
11855;DHT22;5987;53.140;8.904;2022-07-23T19:26:38;18.60;99.90
11855;DHT22;5987;53.140;8.904;2022-07-23T19:29:42;18.50;99.90
11855;DHT22;5987;53.140;8.904;2022-07-23T19:32:46;18.50;99.90
11855;DHT22;5987;53.140;8.904;2022-07-23T19:35:50;18.40;99.90
11855;DHT22;5987;53.140;8.904;2022-07-23T19:38:54;18.30;99.90
11855;DHT22;5987;53.140;8.904;2022-07-23T19:41:59;18.30;99.90
11855;DHT22;5987;53.140;8.904;2022-07-23T19:45:04;18.10;99.90
11855;DHT22;5987;53.140;8.904;2022-07-23T19:48:09;18.10;99.90
11855;DHT22;5987;53.140;8.904;2022-07-23T19:51:12;18.10;99.90